Time;durP1;ratioP1;P1;durP2;ratioP2;P2;SDS_P1;SDS_P2;PMS_P1;PMS_P2;Temp;Humidity;BMP_temperature;BMP_pressure;BME280_temperature;BME280_humidity;BME280_pressure;Samples;Min_cycle;Max_cycle;Signal;HPM_P1;HPM_P2
2021/12/31 00:01:04;;;;;;;9.00;7.87;;;13.20;1.00;;;;;;5100252;28;20455;-83
2021/12/31 00:03:33;;;;;;;7.90;6.90;;;13.10;1.00;;;;;;5093342;28;20497;-84
2021/12/31 00:05:59;;;;;;;8.57;7.67;;;13.10;1.00;;;;;;5093418;28;20557;-84
2021/12/31 00:08:28;;;;;;;7.90;7.10;;;13.10;1.00;;;;;;5089573;28;20454;-84
2021/12/31 00:10:59;;;;;;;10.10;7.27;;;13.10;1.00;;;;;;5089703;28;20447;-84
2021/12/31 00:13:26;;;;;;;7.80;7.00;;;13.10;1.00;;;;;;5081596;28;20534;-84
2021/12/31 00:15:53;;;;;;;7.03;6.33;;;13.00;1.00;;;;;;5081780;28;20503;-86
2021/12/31 00:18:19;;;;;;;8.80;7.90;;;13.00;1.00;;;;;;5079802;28;20461;-85
2021/12/31 00:20:46;;;;;;;7.10;6.40;;;13.00;1.00;;;;;;5089256;28;20478;-85
2021/12/31 00:23:15;;;;;;;8.33;7.37;;;13.00;1.00;;;;;;5085623;28;20454;-85
2021/12/31 00:25:44;;;;;;;8.27;7.03;;;13.00;1.00;;;;;;5083125;28;20459;-85
2021/12/31 00:28:12;;;;;;;8.37;7.10;;;13.00;1.00;;;;;;5083939;28;20465;-84
2021/12/31 00:30:40;;;;;;;7.73;7.00;;;12.90;1.00;;;;;;5070421;28;20470;-85
2021/12/31 00:33:08;;;;;;;8.87;7.97;;;12.90;1.00;;;;;;5085047;28;20447;-86
2021/12/31 00:35:36;;;;;;;8.97;8.07;;;12.90;1.00;;;;;;5069347;28;20471;-85
2021/12/31 00:38:04;;;;;;;8.43;7.63;;;12.90;1.00;;;;;;5091232;28;21640;-84
2021/12/31 00:40:31;;;;;;;8.90;8.00;;;12.90;1.00;;;;;;5083200;28;20547;-85
2021/12/31 00:42:59;;;;;;;8.80;7.90;;;12.90;1.00;;;;;;5080937;28;20910;-86
2021/12/31 00:45:26;;;;;;;9.00;8.10;;;12.90;1.00;;;;;;5087771;28;20590;-85
2021/12/31 00:47:54;;;;;;;9.20;7.13;;;12.90;1.00;;;;;;5086989;28;20479;-85
2021/12/31 00:50:21;;;;;;;10.43;9.33;;;12.90;1.00;;;;;;5088031;28;20431;-84
2021/12/31 00:52:48;;;;;;;9.30;8.00;;;12.90;1.00;;;;;;5104518;28;20407;-87
2021/12/31 00:55:15;;;;;;;9.93;8.57;;;12.90;1.00;;;;;;5105204;28;20546;-87
2021/12/31 00:57:42;;;;;;;10.20;9.17;;;12.90;1.00;;;;;;5084378;28;20445;-83
2021/12/31 01:00:12;;;;;;;9.87;8.87;;;13.00;1.00;;;;;;5079610;28;20434;-85
2021/12/31 01:02:39;;;;;;;9.73;8.40;;;13.00;1.00;;;;;;5079437;28;20448;-85
2021/12/31 01:05:06;;;;;;;8.77;7.87;;;13.00;1.00;;;;;;5078176;28;21828;-86
2021/12/31 01:07:33;;;;;;;9.70;8.70;;;13.10;1.00;;;;;;5079444;28;20453;-85
2021/12/31 01:10:12;;;;;;;9.93;8.93;;;13.00;1.00;;;;;;5078415;28;20457;-87
2021/12/31 01:12:39;;;;;;;12.30;9.47;;;13.00;1.00;;;;;;5073380;28;21439;-83
2021/12/31 01:15:10;;;;;;;9.50;8.50;;;13.10;1.00;;;;;;5081566;28;20570;-87
2021/12/31 01:17:49;;;;;;;9.07;8.23;;;13.10;1.00;;;;;;5083450;28;20483;-83
2021/12/31 01:20:18;;;;;;;9.63;8.70;;;13.10;1.00;;;;;;5078182;28;20437;-84
2021/12/31 01:22:45;;;;;;;9.90;7.80;;;13.10;1.00;;;;;;5056328;28;20455;-85
2021/12/31 01:25:12;;;;;;;11.00;7.60;;;13.20;1.00;;;;;;5079385;28;20456;-85
2021/12/31 01:27:43;;;;;;;10.57;9.23;;;13.20;1.00;;;;;;5074189;28;20883;-85
2021/12/31 01:30:13;;;;;;;8.93;8.03;;;13.20;1.00;;;;;;5081289;28;21157;-85
2021/12/31 01:32:43;;;;;;;9.00;8.10;;;13.20;1.00;;;;;;5077178;28;21908;-85
2021/12/31 01:35:10;;;;;;;9.53;8.50;;;13.20;1.00;;;;;;5075607;28;20537;-84
2021/12/31 01:37:37;;;;;;;9.03;8.13;;;13.30;1.00;;;;;;5070979;28;20495;-85
2021/12/31 01:40:05;;;;;;;8.97;8.17;;;13.30;1.00;;;;;;5074599;28;20431;-84
2021/12/31 01:42:33;;;;;;;9.40;8.33;;;13.30;1.00;;;;;;5078351;28;20414;-85
2021/12/31 01:45:05;;;;;;;8.10;7.30;;;13.30;1.00;;;;;;5079657;28;20455;-84
2021/12/31 01:47:46;;;;;;;11.40;7.53;;;13.30;1.00;;;;;;5107100;28;20454;-85
2021/12/31 01:50:15;;;;;;;8.30;7.47;;;13.30;1.00;;;;;;5106854;27;20502;-85
2021/12/31 01:52:42;;;;;;;8.43;7.27;;;13.30;1.00;;;;;;5104209;27;20434;-87
2021/12/31 01:55:11;;;;;;;7.23;6.40;;;13.30;1.00;;;;;;5086213;28;20440;-84
2021/12/31 01:57:40;;;;;;;8.37;7.10;;;13.30;1.00;;;;;;5082816;28;20478;-85
2021/12/31 02:00:08;;;;;;;6.60;5.90;;;13.40;1.00;;;;;;5088378;28;20508;-84
2021/12/31 02:02:35;;;;;;;7.17;6.47;;;13.40;1.00;;;;;;5081187;28;20451;-84
2021/12/31 02:05:03;;;;;;;7.03;6.23;;;13.40;1.00;;;;;;5075724;28;20455;-85
2021/12/31 02:07:31;;;;;;;6.83;5.80;;;13.40;1.00;;;;;;5077773;28;21195;-85
2021/12/31 02:09:58;;;;;;;6.83;6.13;;;13.50;1.00;;;;;;5082246;28;20402;-85
2021/12/31 02:12:25;;;;;;;6.70;6.00;;;13.40;1.00;;;;;;5105593;27;20445;-86
2021/12/31 02:14:52;;;;;;;6.60;5.83;;;13.40;1.00;;;;;;5090960;28;20593;-82
2021/12/31 02:17:20;;;;;;;5.77;4.83;;;13.50;1.00;;;;;;5076401;28;20477;-80
2021/12/31 02:20:00;;;;;;;5.30;4.80;;;13.40;1.00;;;;;;5080764;28;20407;-79
2021/12/31 02:22:28;;;;;;;6.20;5.60;;;13.40;1.00;;;;;;5076912;28;20519;-80
2021/12/31 02:24:56;;;;;;;7.13;5.70;;;13.40;1.00;;;;;;5073699;28;20962;-80
2021/12/31 02:27:23;;;;;;;5.60;5.07;;;13.40;1.00;;;;;;5079090;28;20917;-79
2021/12/31 02:29:50;;;;;;;6.60;5.57;;;13.40;1.00;;;;;;5075939;28;20435;-81
2021/12/31 02:32:17;;;;;;;5.80;5.30;;;13.40;1.00;;;;;;5072623;28;20491;-81
2021/12/31 02:34:45;;;;;;;6.87;5.80;;;13.40;1.00;;;;;;5069682;28;20459;-80
2021/12/31 02:37:14;;;;;;;5.83;5.23;;;13.40;1.00;;;;;;5074728;28;20554;-80
2021/12/31 02:39:42;;;;;;;6.47;5.67;;;13.30;1.00;;;;;;5070412;28;20566;-80
2021/12/31 02:42:09;;;;;;;7.10;6.00;;;13.30;1.00;;;;;;5080208;28;21761;-81
2021/12/31 02:44:37;;;;;;;7.47;6.50;;;13.30;1.00;;;;;;5072305;28;20519;-81
2021/12/31 02:47:05;;;;;;;7.73;6.93;;;13.30;1.00;;;;;;5059735;28;20461;-79
2021/12/31 02:49:36;;;;;;;7.37;6.50;;;13.30;1.00;;;;;;5078503;28;20584;-80
2021/12/31 02:52:04;;;;;;;7.70;6.87;;;13.20;1.00;;;;;;5084466;28;20451;-81
2021/12/31 02:54:35;;;;;;;7.70;6.73;;;13.20;1.00;;;;;;5089887;28;21326;-81
2021/12/31 02:57:02;;;;;;;8.07;6.80;;;13.30;1.00;;;;;;5101287;27;20446;-79
2021/12/31 02:59:30;;;;;;;9.50;7.40;;;13.30;1.00;;;;;;5109729;28;20453;-81
2021/12/31 03:01:57;;;;;;;7.67;6.87;;;13.30;1.00;;;;;;5084580;28;20458;-81
2021/12/31 03:04:24;;;;;;;7.83;6.93;;;13.30;1.00;;;;;;5087955;28;20636;-82
2021/12/31 03:06:53;;;;;;;7.53;6.80;;;13.30;1.00;;;;;;5105402;28;21769;-81
2021/12/31 03:09:23;;;;;;;8.60;7.67;;;13.30;1.00;;;;;;5106738;28;21296;-79
2021/12/31 03:11:53;;;;;;;9.60;7.47;;;13.40;1.00;;;;;;5078410;28;20441;-81
2021/12/31 03:14:21;;;;;;;8.47;7.63;;;13.40;1.00;;;;;;5082738;28;20458;-82
2021/12/31 03:16:48;;;;;;;9.00;7.80;;;13.40;1.00;;;;;;5077650;28;21294;-81
2021/12/31 03:19:16;;;;;;;9.20;7.40;;;13.40;1.00;;;;;;5078891;28;20427;-82
2021/12/31 03:21:43;;;;;;;9.40;7.97;;;13.40;1.00;;;;;;5074908;28;20462;-81
2021/12/31 03:24:09;;;;;;;7.70;7.00;;;13.40;1.00;;;;;;5079997;28;20442;-81
2021/12/31 03:26:36;;;;;;;8.57;7.77;;;13.40;1.00;;;;;;5078992;28;20607;-79
2021/12/31 03:29:05;;;;;;;7.77;6.97;;;13.40;1.00;;;;;;5075959;28;20455;-81
2021/12/31 03:31:32;;;;;;;8.30;7.50;;;13.40;1.00;;;;;;5081665;28;20550;-80
2021/12/31 03:33:59;;;;;;;9.40;8.50;;;13.40;1.00;;;;;;5087787;28;20470;-81
2021/12/31 03:36:26;;;;;;;8.73;7.90;;;13.40;1.00;;;;;;5080017;28;20467;-81
2021/12/31 03:38:52;;;;;;;9.33;8.43;;;13.40;1.00;;;;;;5065027;28;20538;-80
2021/12/31 03:41:20;;;;;;;9.17;8.27;;;13.50;1.00;;;;;;5070445;28;20446;-80
2021/12/31 03:43:46;;;;;;;9.13;8.20;;;13.50;1.00;;;;;;5095701;28;20483;-79
2021/12/31 03:46:14;;;;;;;9.37;8.37;;;13.50;1.00;;;;;;5085590;28;20467;-79
2021/12/31 03:48:41;;;;;;;8.83;7.77;;;13.50;1.00;;;;;;5082896;28;20458;-81
2021/12/31 03:51:08;;;;;;;8.90;8.00;;;13.50;1.00;;;;;;5079976;28;20450;-79
2021/12/31 03:53:35;;;;;;;8.63;7.70;;;13.50;1.00;;;;;;5078324;28;20566;-81
2021/12/31 03:56:01;;;;;;;9.20;8.27;;;13.50;1.00;;;;;;5075982;28;20502;-80
2021/12/31 03:58:28;;;;;;;9.53;8.00;;;13.50;1.00;;;;;;5075422;28;20510;-81
2021/12/31 04:00:55;;;;;;;8.37;7.50;;;13.50;1.00;;;;;;5079090;28;20531;-80
2021/12/31 04:03:23;;;;;;;8.83;7.93;;;13.60;1.00;;;;;;5079332;28;20586;-79
2021/12/31 04:05:51;;;;;;;9.30;8.30;;;13.60;1.00;;;;;;5080548;28;20475;-81
2021/12/31 04:08:17;;;;;;;10.07;8.47;;;13.60;1.00;;;;;;5079813;28;20431;-81
2021/12/31 04:10:44;;;;;;;9.03;7.70;;;13.60;1.00;;;;;;5078021;27;20423;-80
2021/12/31 04:13:11;;;;;;;9.20;8.20;;;13.60;1.00;;;;;;5102408;27;20447;-79
2021/12/31 04:15:38;;;;;;;9.00;8.10;;;13.50;1.00;;;;;;5100496;27;20524;-80
2021/12/31 04:18:05;;;;;;;10.10;7.90;;;13.60;1.00;;;;;;5106864;27;20464;-80
2021/12/31 04:20:36;;;;;;;8.50;7.67;;;13.60;1.00;;;;;;5081569;28;21546;-81
2021/12/31 04:23:10;;;;;;;9.23;7.97;;;13.50;1.00;;;;;;5077595;28;21861;-79
2021/12/31 04:25:37;;;;;;;8.17;7.37;;;13.50;1.00;;;;;;5075500;28;20937;-80
2021/12/31 04:28:04;;;;;;;9.13;8.23;;;13.50;1.00;;;;;;5078107;28;21216;-81
2021/12/31 04:30:31;;;;;;;9.17;7.23;;;13.50;1.00;;;;;;5077800;28;20535;-80
2021/12/31 04:32:58;;;;;;;10.00;7.47;;;13.50;1.00;;;;;;5080874;28;20447;-82
2021/12/31 04:35:25;;;;;;;8.40;7.60;;;13.50;1.00;;;;;;5076819;28;21210;-81
2021/12/31 04:37:53;;;;;;;8.43;7.50;;;13.50;1.00;;;;;;5078988;28;20466;-81
2021/12/31 04:40:20;;;;;;;8.30;7.50;;;13.50;1.00;;;;;;5080152;28;20452;-80
2021/12/31 04:42:48;;;;;;;10.80;7.07;;;13.50;1.00;;;;;;5076129;28;20454;-79
2021/12/31 04:45:15;;;;;;;7.90;7.10;;;13.50;1.00;;;;;;5074984;28;20516;-81
2021/12/31 04:47:42;;;;;;;7.40;6.40;;;13.50;1.00;;;;;;5079318;28;20526;-81
2021/12/31 04:50:09;;;;;;;8.50;7.33;;;13.50;1.00;;;;;;5077881;28;20541;-80
2021/12/31 04:52:36;;;;;;;6.70;6.10;;;13.40;1.00;;;;;;5076397;28;20534;-79
2021/12/31 04:55:06;;;;;;;7.23;6.50;;;13.40;1.00;;;;;;5078616;28;21247;-80
2021/12/31 04:57:32;;;;;;;6.63;5.93;;;13.40;1.00;;;;;;5062095;28;20463;-80
2021/12/31 04:59:59;;;;;;;6.17;5.50;;;13.40;1.00;;;;;;5071389;28;21077;-81
2021/12/31 05:02:26;;;;;;;6.20;5.60;;;13.30;1.00;;;;;;5059583;28;20540;-81
2021/12/31 05:04:52;;;;;;;6.50;5.90;;;13.30;1.00;;;;;;5084720;28;20465;-80
2021/12/31 05:07:19;;;;;;;6.23;5.63;;;13.30;1.00;;;;;;5081619;28;20463;-80
2021/12/31 05:09:45;;;;;;;5.50;5.00;;;13.40;1.00;;;;;;5084489;28;20518;-82
2021/12/31 05:12:20;;;;;;;5.90;5.03;;;13.30;1.00;;;;;;5059023;28;20621;-82
2021/12/31 05:14:47;;;;;;;5.83;5.33;;;13.40;1.00;;;;;;5077981;28;20438;-81
2021/12/31 05:17:14;;;;;;;5.17;4.67;;;13.40;1.00;;;;;;5076893;28;20540;-81
2021/12/31 05:19:43;;;;;;;5.20;4.70;;;13.40;1.00;;;;;;5059928;28;20464;-82
2021/12/31 05:22:10;;;;;;;5.90;4.70;;;13.40;1.00;;;;;;5065316;28;20535;-81
2021/12/31 05:24:37;;;;;;;5.90;4.83;;;13.40;1.00;;;;;;5074308;28;20547;-81
2021/12/31 05:27:04;;;;;;;5.73;4.53;;;13.50;1.00;;;;;;5075793;28;20439;-80
2021/12/31 05:29:32;;;;;;;4.80;4.40;;;13.50;1.00;;;;;;5079218;28;22354;-81
2021/12/31 05:31:59;;;;;;;5.80;4.53;;;13.50;1.00;;;;;;5078415;28;20446;-82
2021/12/31 05:34:26;;;;;;;5.67;5.17;;;13.50;1.00;;;;;;5058708;28;20460;-83
2021/12/31 05:36:53;;;;;;;5.40;4.90;;;13.50;1.00;;;;;;5071783;28;20443;-81
2021/12/31 05:39:19;;;;;;;5.50;4.43;;;13.50;1.00;;;;;;5074555;28;21030;-81
2021/12/31 05:41:46;;;;;;;5.00;3.97;;;13.50;1.00;;;;;;5075922;28;20440;-81
2021/12/31 05:44:13;;;;;;;4.97;4.50;;;13.50;1.00;;;;;;5079024;28;20531;-81
2021/12/31 05:46:44;;;;;;;5.07;4.50;;;13.50;1.00;;;;;;5089204;28;20577;-81
2021/12/31 05:49:11;;;;;;;5.93;4.30;;;13.50;1.00;;;;;;5104024;28;20429;-80
2021/12/31 05:51:38;;;;;;;5.10;4.53;;;13.50;1.00;;;;;;5095664;28;21162;-81
2021/12/31 05:54:04;;;;;;;5.17;4.53;;;13.50;1.00;;;;;;5092026;28;20487;-79
2021/12/31 05:56:31;;;;;;;5.13;4.67;;;13.50;1.00;;;;;;5095908;28;20446;-80
2021/12/31 05:58:58;;;;;;;4.80;4.40;;;13.60;1.00;;;;;;5101865;28;20439;-81
2021/12/31 06:01:24;;;;;;;5.20;4.70;;;13.60;1.00;;;;;;5098210;28;20431;-82
2021/12/31 06:03:53;;;;;;;4.60;4.20;;;13.60;1.00;;;;;;5100519;28;20503;-81
2021/12/31 06:06:19;;;;;;;5.10;4.70;;;13.60;1.00;;;;;;5103519;28;20440;-81
2021/12/31 06:08:46;;;;;;;4.87;4.47;;;13.60;1.00;;;;;;5084459;28;20443;-81
2021/12/31 06:11:12;;;;;;;4.90;4.47;;;13.60;1.00;;;;;;5057701;28;20464;-80
2021/12/31 06:13:39;;;;;;;4.67;4.27;;;13.60;1.00;;;;;;5078879;28;20582;-81
2021/12/31 06:16:06;;;;;;;4.47;4.07;;;13.60;1.00;;;;;;5081949;28;21302;-81
2021/12/31 06:18:33;;;;;;;7.83;5.40;;;13.50;1.00;;;;;;5089629;28;20438;-79
2021/12/31 06:21:02;;;;;;;4.30;3.47;;;13.50;1.00;;;;;;5094932;28;20458;-80
2021/12/31 06:23:29;;;;;;;4.70;4.30;;;13.60;1.00;;;;;;5093226;28;21232;-80
2021/12/31 06:25:56;;;;;;;4.93;4.40;;;13.50;1.00;;;;;;5093092;28;20478;-80
2021/12/31 06:28:23;;;;;;;5.80;5.00;;;13.50;1.00;;;;;;5079872;28;20419;-80
2021/12/31 06:30:50;;;;;;;5.67;5.07;;;13.50;1.00;;;;;;5082729;28;20915;-79
2021/12/31 06:33:16;;;;;;;4.70;4.30;;;13.50;1.00;;;;;;5080502;28;20492;-80
2021/12/31 06:35:43;;;;;;;5.03;4.33;;;13.50;1.00;;;;;;5079241;28;20513;-80
2021/12/31 06:38:11;;;;;;;5.07;4.57;;;13.50;1.00;;;;;;5085155;28;21018;-80
2021/12/31 06:40:38;;;;;;;5.80;5.30;;;13.50;1.00;;;;;;5088031;28;20469;-80
2021/12/31 06:43:05;;;;;;;6.00;4.70;;;13.50;1.00;;;;;;5076876;28;20538;-79
2021/12/31 06:45:32;;;;;;;5.60;5.10;;;13.50;1.00;;;;;;5083825;28;20440;-80
2021/12/31 06:47:59;;;;;;;5.93;5.37;;;13.50;1.00;;;;;;5082368;28;21254;-81
2021/12/31 06:50:25;;;;;;;6.33;5.40;;;13.50;1.00;;;;;;5086109;28;20539;-81
2021/12/31 06:52:52;;;;;;;6.20;5.20;;;13.50;1.00;;;;;;5078011;28;20880;-80
2021/12/31 06:55:20;;;;;;;5.90;5.03;;;13.50;1.00;;;;;;5082099;28;21629;-78
2021/12/31 06:57:49;;;;;;;5.50;5.00;;;13.50;1.00;;;;;;5079909;28;20469;-79
2021/12/31 07:00:17;;;;;;;5.70;5.07;;;13.50;1.00;;;;;;5083584;28;20465;-78
2021/12/31 07:02:44;;;;;;;5.70;5.20;;;13.50;1.00;;;;;;5080667;28;20566;-80
2021/12/31 07:05:11;;;;;;;5.93;5.10;;;13.50;1.00;;;;;;5086514;28;20477;-79
2021/12/31 07:07:38;;;;;;;5.70;5.27;;;13.50;1.00;;;;;;5065101;28;20463;-80
2021/12/31 07:10:06;;;;;;;5.33;4.83;;;13.50;1.00;;;;;;5083189;28;20522;-80
2021/12/31 07:12:34;;;;;;;6.17;5.57;;;13.50;1.00;;;;;;5078815;28;20505;-81
2021/12/31 07:15:01;;;;;;;5.80;5.20;;;13.50;1.00;;;;;;5084396;28;20513;-81
2021/12/31 07:17:29;;;;;;;5.33;4.83;;;13.60;1.00;;;;;;5080564;28;21139;-81
2021/12/31 07:19:57;;;;;;;6.10;5.60;;;13.60;1.00;;;;;;5082469;28;22680;-79
2021/12/31 07:22:23;;;;;;;6.40;5.80;;;13.60;1.00;;;;;;5080493;28;20450;-79
2021/12/31 07:24:50;;;;;;;5.33;4.90;;;13.60;1.00;;;;;;5090819;28;20601;-79
2021/12/31 07:27:17;;;;;;;5.00;4.60;;;13.60;1.00;;;;;;5111670;27;20423;-79
2021/12/31 07:29:45;;;;;;;6.60;5.60;;;13.60;1.00;;;;;;5103571;27;20404;-78
2021/12/31 07:32:12;;;;;;;4.90;4.50;;;13.60;1.00;;;;;;5063796;28;20463;-81
2021/12/31 07:34:39;;;;;;;6.77;5.93;;;13.60;1.00;;;;;;5080640;27;20439;-81
2021/12/31 07:37:05;;;;;;;5.20;4.70;;;13.60;1.00;;;;;;5081347;28;20435;-80
2021/12/31 07:39:34;;;;;;;4.67;4.27;;;13.60;1.00;;;;;;5075702;28;20465;-80
2021/12/31 07:42:01;;;;;;;5.40;4.90;;;13.60;1.00;;;;;;5077313;28;20462;-79
2021/12/31 07:44:27;;;;;;;6.47;4.93;;;13.60;1.00;;;;;;5075288;28;20466;-79
2021/12/31 07:46:55;;;;;;;6.77;4.80;;;13.60;1.00;;;;;;5077354;28;20525;-79
2021/12/31 07:49:22;;;;;;;5.57;5.07;;;13.60;1.00;;;;;;5077003;28;20451;-80
2021/12/31 07:51:49;;;;;;;5.57;4.53;;;13.60;1.00;;;;;;5079022;28;20443;-80
2021/12/31 07:54:16;;;;;;;4.97;4.47;;;13.70;1.00;;;;;;5081713;28;20439;-80
2021/12/31 07:56:43;;;;;;;5.33;4.83;;;13.70;1.00;;;;;;5074819;28;20518;-80
2021/12/31 07:59:09;;;;;;;5.40;4.90;;;13.80;1.00;;;;;;5078580;28;20548;-79
2021/12/31 08:01:36;;;;;;;4.87;4.40;;;13.70;1.00;;;;;;5079880;28;20538;-79
2021/12/31 08:04:04;;;;;;;5.40;4.90;;;13.80;1.00;;;;;;5075194;28;20479;-79
2021/12/31 08:06:31;;;;;;;5.20;4.80;;;13.80;1.00;;;;;;5079020;28;20451;-81
2021/12/31 08:08:58;;;;;;;6.23;4.30;;;13.80;1.00;;;;;;5071050;28;20464;-79
2021/12/31 08:11:24;;;;;;;4.90;4.50;;;13.80;1.00;;;;;;5085477;28;20546;-79
2021/12/31 08:13:51;;;;;;;4.43;4.00;;;13.90;1.00;;;;;;5074825;27;20552;-79
2021/12/31 08:16:18;;;;;;;5.43;5.03;;;13.90;1.00;;;;;;5077117;28;20435;-78
2021/12/31 08:18:44;;;;;;;6.53;5.00;;;13.90;1.00;;;;;;5081125;28;20451;-80
2021/12/31 08:21:12;;;;;;;5.10;4.70;;;13.90;1.00;;;;;;5063161;28;20570;-80
2021/12/31 08:23:39;;;;;;;4.13;3.83;;;13.80;1.00;;;;;;5080542;28;20427;-79
2021/12/31 08:26:06;;;;;;;4.87;4.10;;;13.80;1.00;;;;;;5098677;28;20445;-79
2021/12/31 08:28:32;;;;;;;4.23;3.83;;;13.80;1.00;;;;;;5105532;27;20446;-78
2021/12/31 08:30:59;;;;;;;6.87;6.17;;;13.80;1.00;;;;;;5085414;28;20564;-78
2021/12/31 08:33:26;;;;;;;8.67;4.20;;;13.80;1.00;;;;;;5075436;27;20651;-81
2021/12/31 08:35:53;;;;;;;4.00;3.70;;;13.90;1.00;;;;;;5080430;28;20446;-79
2021/12/31 08:38:22;;;;;;;4.80;4.40;;;13.90;1.00;;;;;;5083703;28;20486;-78
2021/12/31 08:40:48;;;;;;;5.17;4.30;;;13.90;1.00;;;;;;5080031;28;20455;-79
2021/12/31 08:43:15;;;;;;;6.40;3.63;;;13.90;1.00;;;;;;5060704;28;20440;-79
2021/12/31 08:45:41;;;;;;;3.63;3.33;;;13.90;1.00;;;;;;5080731;28;20444;-79
2021/12/31 08:48:08;;;;;;;4.07;3.73;;;13.90;1.00;;;;;;5082745;28;21551;-78
2021/12/31 08:50:36;;;;;;;4.70;3.90;;;14.00;1.00;;;;;;5078207;28;20471;-79
2021/12/31 08:53:04;;;;;;;4.07;3.73;;;14.00;1.00;;;;;;5081666;28;21180;-79
2021/12/31 08:55:32;;;;;;;5.00;3.50;;;14.00;1.00;;;;;;5065484;28;20475;-80
2021/12/31 08:57:59;;;;;;;3.53;2.97;;;14.00;1.00;;;;;;5086442;28;20415;-79
2021/12/31 09:00:25;;;;;;;3.50;3.20;;;14.10;1.00;;;;;;5086841;28;20415;-81
2021/12/31 09:02:52;;;;;;;7.00;3.07;;;14.10;1.00;;;;;;5101205;28;20553;-82
2021/12/31 09:05:19;;;;;;;3.90;3.53;;;14.00;1.00;;;;;;5105281;28;20415;-84
2021/12/31 09:07:46;;;;;;;3.43;3.07;;;14.10;1.00;;;;;;5112687;28;20435;-83
2021/12/31 09:10:13;;;;;;;5.00;3.10;;;14.10;1.00;;;;;;5110204;28;20658;-84
2021/12/31 09:12:44;;;;;;;2.90;2.60;;;14.10;1.00;;;;;;5099800;28;20440;-81
2021/12/31 09:15:11;;;;;;;7.53;4.20;;;14.10;1.00;;;;;;5089292;28;20490;-82
2021/12/31 09:17:38;;;;;;;4.30;2.97;;;14.10;1.00;;;;;;5123221;22;20470;-82
2021/12/31 09:20:07;;;;;;;3.60;3.10;;;14.20;1.00;;;;;;5091102;28;20954;-80
2021/12/31 09:22:34;;;;;;;4.43;3.43;;;14.20;1.00;;;;;;5107171;28;20415;-83
2021/12/31 09:25:00;;;;;;;4.10;3.63;;;14.20;1.00;;;;;;5113088;28;20434;-84
2021/12/31 09:27:28;;;;;;;4.33;3.70;;;14.10;1.00;;;;;;5106677;28;20412;-82
2021/12/31 09:29:56;;;;;;;4.73;3.37;;;14.10;1.00;;;;;;5111198;27;20414;-84
2021/12/31 09:32:24;;;;;;;3.30;3.00;;;14.10;1.00;;;;;;5097733;27;23137;-84
2021/12/31 09:34:51;;;;;;;3.90;3.03;;;14.10;1.00;;;;;;5091260;28;20467;-83
2021/12/31 09:37:19;;;;;;;3.07;2.77;;;14.10;1.00;;;;;;5093266;28;20450;-84
2021/12/31 09:39:46;;;;;;;3.87;3.10;;;14.10;1.00;;;;;;5091918;28;20444;-85
2021/12/31 09:42:13;;;;;;;3.90;2.93;;;14.10;1.00;;;;;;5090765;28;20522;-81
2021/12/31 09:44:41;;;;;;;4.67;3.20;;;14.10;1.00;;;;;;5085561;28;20462;-82
2021/12/31 09:47:13;;;;;;;2.90;2.47;;;14.20;1.00;;;;;;5088974;28;20905;-82
2021/12/31 09:49:40;;;;;;;3.90;3.10;;;14.20;1.00;;;;;;5087012;28;20450;-81
2021/12/31 09:52:09;;;;;;;4.80;2.53;;;14.20;1.00;;;;;;5076061;28;20457;-78
2021/12/31 09:54:36;;;;;;;4.30;2.97;;;14.30;1.00;;;;;;5091722;28;20478;-78
2021/12/31 09:57:04;;;;;;;3.27;2.53;;;14.30;1.00;;;;;;5083309;28;20467;-80
2021/12/31 09:59:31;;;;;;;4.37;2.83;;;14.40;1.00;;;;;;5084096;28;21329;-79
2021/12/31 10:01:58;;;;;;;3.20;2.90;;;14.40;1.00;;;;;;5080721;28;20604;-80
2021/12/31 10:04:54;;;;;;;3.60;2.83;;;14.30;1.00;;;;;;5097308;27;20461;-75
2021/12/31 10:07:23;;;;;;;3.30;2.40;;;14.30;1.00;;;;;;5085073;28;20486;-75
2021/12/31 10:10:05;;;;;;;2.90;2.60;;;14.40;1.00;;;;;;5093004;27;20482;-76
2021/12/31 10:12:45;;;;;;;3.30;2.70;;;14.40;1.00;;;;;;5077978;28;21664;-79
2021/12/31 10:15:11;;;;;;;3.90;2.83;;;14.40;1.00;;;;;;5085314;28;20603;-79
2021/12/31 10:17:38;;;;;;;3.30;2.47;;;14.30;1.00;;;;;;5084510;28;20448;-78
2021/12/31 10:20:10;;;;;;;3.23;2.70;;;14.30;1.00;;;;;;5078907;28;20464;-77
2021/12/31 10:22:37;;;;;;;4.23;2.77;;;14.30;1.00;;;;;;5078026;28;21370;-77
2021/12/31 10:25:17;;;;;;;6.90;5.53;;;14.30;1.00;;;;;;5091069;28;20538;-78
2021/12/31 10:27:43;;;;;;;3.00;2.40;;;14.30;1.00;;;;;;5078366;28;20530;-76
2021/12/31 10:30:11;;;;;;;3.57;2.67;;;14.30;1.00;;;;;;5065213;28;20421;-77
2021/12/31 10:32:40;;;;;;;4.73;2.30;;;14.20;1.00;;;;;;5088883;28;20404;-77
2021/12/31 10:35:16;;;;;;;5.97;2.87;;;14.20;1.00;;;;;;5090428;28;20443;-76
2021/12/31 10:37:47;;;;;;;3.50;2.67;;;14.20;1.00;;;;;;5063313;28;20512;-76
2021/12/31 10:40:28;;;;;;;3.63;3.07;;;14.20;1.00;;;;;;5082763;28;20494;-77
2021/12/31 10:43:11;;;;;;;2.57;2.20;;;14.10;1.00;;;;;;5079099;28;20450;-78
2021/12/31 10:45:39;;;;;;;4.60;3.53;;;14.10;1.00;;;;;;5082368;28;20904;-76
2021/12/31 10:48:07;;;;;;;3.83;2.00;;;14.00;1.00;;;;;;5075554;28;20413;-77
2021/12/31 10:50:37;;;;;;;4.00;2.20;;;14.00;1.00;;;;;;5078316;28;21234;-78
2021/12/31 10:53:10;;;;;;;2.50;2.00;;;14.00;1.00;;;;;;5078198;28;20440;-78
2021/12/31 10:55:40;;;;;;;2.70;2.00;;;14.00;1.00;;;;;;5067992;28;20530;-78
2021/12/31 10:58:11;;;;;;;4.37;2.50;;;14.00;1.00;;;;;;5078405;28;21001;-78
2021/12/31 11:00:40;;;;;;;4.20;2.27;;;14.00;1.00;;;;;;5077371;28;20455;-77
2021/12/31 11:03:09;;;;;;;2.80;2.10;;;14.00;1.00;;;;;;5077757;28;20420;-75
2021/12/31 11:05:39;;;;;;;3.33;2.60;;;13.90;1.00;;;;;;5082708;28;20623;-79
2021/12/31 11:08:08;;;;;;;2.70;2.40;;;14.00;1.00;;;;;;5074517;28;21531;-80
2021/12/31 11:10:37;;;;;;;3.93;3.10;;;14.00;1.00;;;;;;5268174;22;20430;-81
2021/12/31 11:13:10;;;;;;;4.90;2.37;;;14.00;1.00;;;;;;5065040;28;20417;-80
2021/12/31 11:15:38;;;;;;;2.63;1.90;;;14.00;1.00;;;;;;5049944;28;20446;-80
2021/12/31 11:18:08;;;;;;;4.53;3.10;;;14.00;1.00;;;;;;5076614;28;20451;-81
2021/12/31 11:20:35;;;;;;;3.00;2.03;;;14.10;1.00;;;;;;5071669;28;20534;-78
2021/12/31 11:23:03;;;;;;;3.40;2.40;;;14.10;1.00;;;;;;5064588;28;20494;-78
2021/12/31 11:25:30;;;;;;;3.60;2.20;;;14.10;1.00;;;;;;5058647;28;20445;-77
2021/12/31 11:27:58;;;;;;;7.17;6.23;;;14.10;1.00;;;;;;5059043;28;20456;-77
2021/12/31 11:30:37;;;;;;;5.00;4.17;;;14.20;1.00;;;;;;5068433;28;20502;-77
2021/12/31 11:33:09;;;;;;;4.20;2.67;;;14.20;1.00;;;;;;5070531;28;21174;-78
2021/12/31 11:35:42;;;;;;;2.20;1.90;;;14.20;1.00;;;;;;5060001;28;20606;-80
2021/12/31 11:38:16;;;;;;;3.50;2.00;;;14.20;1.00;;;;;;5065366;28;20436;-77
2021/12/31 11:40:50;;;;;;;3.83;2.73;;;14.20;1.00;;;;;;5044460;28;20472;-78
2021/12/31 11:43:26;;;;;;;4.07;2.70;;;14.20;1.00;;;;;;5047124;28;20538;-80
2021/12/31 11:46:42;;;;;;;2.70;1.93;;;14.10;1.00;;;;;;5063256;28;20549;-78
2021/12/31 11:49:19;;;;;;;2.77;2.00;;;14.10;1.00;;;;;;5065339;28;20459;-79
2021/12/31 11:52:01;;;;;;;3.60;1.90;;;14.10;1.00;;;;;;5065237;28;20684;-79
2021/12/31 11:54:29;;;;;;;2.83;1.87;;;14.10;1.00;;;;;;5071642;28;20406;-77
2021/12/31 11:56:59;;;;;;;3.90;2.20;;;14.10;1.00;;;;;;5070023;28;20460;-79
2021/12/31 11:59:34;;;;;;;4.23;1.90;;;14.00;1.00;;;;;;5075098;28;20472;-79
2021/12/31 12:02:15;;;;;;;3.70;2.13;;;14.00;1.00;;;;;;5076579;28;20487;-77
2021/12/31 12:04:44;;;;;;;4.93;4.43;;;14.10;1.00;;;;;;5084575;28;20437;-79
2021/12/31 12:07:13;;;;;;;2.63;2.40;;;14.00;1.00;;;;;;5080464;28;20463;-79
2021/12/31 12:10:20;;;;;;;4.43;3.00;;;14.10;1.00;;;;;;5066428;28;20452;-80
2021/12/31 12:12:52;;;;;;;3.40;2.70;;;14.10;1.00;;;;;;5060770;28;20560;-80
2021/12/31 12:15:34;;;;;;;2.70;2.40;;;14.10;1.00;;;;;;5045762;28;20457;-76
2021/12/31 12:18:06;;;;;;;4.87;1.80;;;14.10;1.00;;;;;;5056374;28;20471;-76
2021/12/31 12:20:40;;;;;;;2.97;1.90;;;14.10;1.00;;;;;;5064665;28;20556;-80
2021/12/31 12:23:26;;;;;;;3.17;2.00;;;14.10;1.00;;;;;;5058922;28;20452;-78
2021/12/31 12:25:54;;;;;;;3.40;1.90;;;14.00;1.00;;;;;;5058477;28;20727;-78
2021/12/31 12:28:21;;;;;;;3.17;2.23;;;14.10;1.00;;;;;;5056416;28;20471;-78
2021/12/31 12:31:04;;;;;;;2.50;1.63;;;14.20;1.00;;;;;;5055341;28;20459;-79
2021/12/31 12:33:30;;;;;;;2.67;1.93;;;14.20;1.00;;;;;;5064046;28;20464;-78
2021/12/31 12:35:59;;;;;;;4.73;2.03;;;14.20;1.00;;;;;;5062753;28;20511;-79
2021/12/31 12:38:30;;;;;;;2.37;1.90;;;14.20;1.00;;;;;;5061540;28;20459;-79
2021/12/31 12:41:00;;;;;;;3.00;2.57;;;14.30;1.00;;;;;;5059019;28;20412;-78
2021/12/31 12:43:29;;;;;;;3.17;1.90;;;14.40;1.00;;;;;;5061062;28;20559;-78
2021/12/31 12:45:58;;;;;;;3.77;2.00;;;14.40;1.00;;;;;;5059325;28;20546;-79
2021/12/31 12:48:33;;;;;;;2.70;2.00;;;14.40;1.00;;;;;;5057995;28;20439;-80
2021/12/31 12:51:00;;;;;;;2.77;1.90;;;14.50;1.00;;;;;;5063834;28;20503;-79
2021/12/31 12:53:28;;;;;;;3.87;2.20;;;14.50;1.00;;;;;;5059100;28;20468;-78
2021/12/31 12:56:05;;;;;;;2.53;2.00;;;14.50;1.00;;;;;;5044529;28;20516;-80
2021/12/31 12:58:34;;;;;;;3.13;2.10;;;14.50;1.00;;;;;;5059166;28;20427;-80
2021/12/31 13:01:03;;;;;;;4.30;1.70;;;14.50;1.00;;;;;;5062555;28;20464;-78
2021/12/31 13:03:30;;;;;;;6.57;2.90;;;14.50;1.00;;;;;;5054999;28;20468;-79
2021/12/31 13:06:05;;;;;;;3.03;2.20;;;14.50;1.00;;;;;;5065939;28;20473;-80